Etusivu
METAR-TAF:

METAR-TAF

Lentoasemat :

Umeå, Ruotsi

Uumajan lentoasema

Leveyspiiri: 63-48N, Pituuspiiri: 020-17E, korkeus merenpinnasta: 7 m

Tämänhetkinen sää

Tämä raportti tehtiin 19 minuuttia sitten, kello 12.20 UTC
Tuuli 6 kn luoteesta
Lämpötila 8°C
Kosteus 61%
Ilmanpaine 1018 hPa
Näkyvyys 10 km tai enemmän
ei pilviä alle 1500 m:ssä eikä cumulonimbus-pilviä

METAR: ESNU 191220Z 31006KT CAVOK 08/01 Q1018

Aika: 14:39 (12:39 UTC)

Sääennuste

Tämä raportti tehtiin 1 tunti ja 9 minuuttia sitten, kello 11.30 UTC
Ennuste voimassa 19. päivästä klo 12 UTC - 19. päivään klo 21 UTC
Tuuli 6 kn lännestä
Näkyvyys 10 km tai enemmän
ei pilviä alle 1500 m:ssä eikä cumulonimbus-pilviä

TAF: ESNU 191130Z 1912/1921 28006KT CAVOK

Säähavainnot ja -ennusteet yli 4000 lentoasemalta (METAR- ja TAF-raportit).

Käytössä olevat sääasemat on merkitty karttaan keltaisilla ja punaisilla pisteillä.

Aseta hiiri pisteen päälle nähdäksesi sääaseman nimen.

Klikkaa sitten nähdäksesi säähavainnot ja -ennusteet.

Kartan vaihtaminen: klikkaa mustalla rastilla varustettuja vihreitä pisteitä, niin voit zoomata sisään; viivalla varustettua vihreää pistettä, niin voit zoomata ulos tai vihreitä nuolia, niin pääset viereisille kartoille.


METAR-TAF: